Time;durP1;ratioP1;P1;durP2;ratioP2;P2;SDS_P1;SDS_P2;PMS_P1;PMS_P2;Temp;Humidity;BMP_temperature;BMP_pressure;BME280_temperature;BME280_humidity;BME280_pressure;Samples;Min_cycle;Max_cycle;Signal;HPM_P1;HPM_P2
2022/09/22 00:01:55;;;;;;;4.78;2.45;;;;;;;;;;6270158;22;20030;-60
2022/09/22 00:04:29;;;;;;;10.65;2.80;;;;;;;;;;6270518;22;20099;-54
2022/09/22 00:07:03;;;;;;;5.00;2.78;;;;;;;;;;6270983;22;20019;-52
2022/09/22 00:09:43;;;;;;;12.95;3.03;;;;;;;;;;6269235;22;20120;-60
2022/09/22 00:12:11;;;;;;;6.97;3.17;;;;;;;;;;6271125;22;20026;-61
2022/09/22 00:14:48;;;;;;;;;;;;;;;;;;6268514;22;20026;-61
2022/09/22 00:17:15;;;;;;;12.27;3.30;;;;;;;;;;6269808;22;20341;-61
2022/09/22 00:19:42;;;;;;;7.57;3.53;;;;;;;;;;6270172;22;20026;-61
2022/09/22 00:22:16;;;;;;;7.75;2.95;;;;;;;;;;6268261;22;20480;-61
2022/09/22 00:24:44;;;;;;;12.50;4.00;;;;;;;;;;6269165;22;20019;-45
2022/09/22 00:27:11;;;;;;;10.20;3.80;;;;;;;;;;6269178;22;20023;-54
2022/09/22 00:29:45;;;;;;;7.05;3.53;;;;;;;;;;6269361;22;20024;-56
2022/09/22 00:32:13;;;;;;;6.88;2.95;;;;;;;;;;6270125;22;20034;-53
2022/09/22 00:34:40;;;;;;;7.45;3.00;;;;;;;;;;6270063;22;20094;-51
2022/09/22 00:37:13;;;;;;;3.42;2.30;;;;;;;;;;6268062;22;20465;-51
2022/09/22 00:39:41;;;;;;;6.00;2.60;;;;;;;;;;6269304;22;20026;-54
2022/09/22 00:42:11;;;;;;;5.50;2.05;;;;;;;;;;6270965;22;20026;-60
2022/09/22 00:44:44;;;;;;;2.38;1.70;;;;;;;;;;6270645;22;20016;-62
2022/09/22 00:47:18;;;;;;;6.05;2.03;;;;;;;;;;6267891;22;20030;-56
2022/09/22 00:50:15;;;;;;;6.03;1.75;;;;;;;;;;6267979;22;20022;-56
2022/09/22 00:52:50;;;;;;;1.85;1.65;;;;;;;;;;6268750;22;20217;-55
2022/09/22 00:55:46;;;;;;;5.20;2.22;;;;;;;;;;6268880;22;20030;-53
2022/09/22 00:58:21;;;;;;;7.93;2.50;;;;;;;;;;6269818;22;20098;-53
2022/09/22 01:00:55;;;;;;;3.67;2.03;;;;;;;;;;6269736;22;20357;-53
2022/09/22 01:03:25;;;;;;;7.65;2.05;;;;;;;;;;6268264;22;20115;-73
2022/09/22 01:06:00;;;;;;;3.45;2.15;;;;;;;;;;6267074;22;20024;-73
2022/09/22 01:08:36;;;;;;;4.90;2.25;;;;;;;;;;6269683;22;20327;-72
2022/09/22 01:11:19;;;;;;;3.17;2.70;;;;;;;;;;6271552;22;20030;-72
2022/09/22 01:13:56;;;;;;;10.77;2.60;;;;;;;;;;6270159;22;20039;-73
2022/09/22 01:16:42;;;;;;;5.80;2.00;;;;;;;;;;6269390;22;20020;-72
2022/09/22 01:19:28;;;;;;;1.90;1.75;;;;;;;;;;6269891;22;20565;-72
2022/09/22 01:22:15;;;;;;;4.25;2.03;;;;;;;;;;6271063;22;20023;-45
2022/09/22 01:25:01;;;;;;;4.45;2.50;;;;;;;;;;6269866;22;20020;-45
2022/09/22 01:27:45;;;;;;;8.77;2.47;;;;;;;;;;6270482;22;20020;-49
2022/09/22 01:30:33;;;;;;;6.68;2.33;;;;;;;;;;6269561;22;20031;-45
2022/09/22 01:33:15;;;;;;;5.55;2.63;;;;;;;;;;6250668;22;20020;-46
2022/09/22 01:35:51;;;;;;;6.00;2.20;;;;;;;;;;6268658;22;20045;-45
2022/09/22 01:38:42;;;;;;;4.72;2.25;;;;;;;;;;6268265;22;20562;-46
2022/09/22 01:41:15;;;;;;;3.00;2.20;;;;;;;;;;6269814;22;20348;-60
2022/09/22 01:43:55;;;;;;;7.28;2.30;;;;;;;;;;6270464;22;20037;-45
2022/09/22 01:46:26;;;;;;;6.97;2.30;;;;;;;;;;6267924;22;20465;-45
2022/09/22 01:49:02;;;;;;;3.80;1.97;;;;;;;;;;6269755;22;20106;-45
2022/09/22 01:51:32;;;;;;;6.13;2.35;;;;;;;;;;6268770;22;20453;-46
2022/09/22 01:54:12;;;;;;;5.13;2.35;;;;;;;;;;6268150;22;20023;-44
2022/09/22 01:56:49;;;;;;;4.05;2.20;;;;;;;;;;6268968;22;20019;-45
2022/09/22 01:59:17;;;;;;;5.32;2.25;;;;;;;;;;6268546;22;20027;-49
2022/09/22 02:02:01;;;;;;;4.78;2.00;;;;;;;;;;6267411;22;20111;-60
2022/09/22 02:04:28;;;;;;;9.52;2.35;;;;;;;;;;6269165;22;20335;-55
2022/09/22 02:07:05;;;;;;;8.55;2.47;;;;;;;;;;6269123;22;20452;-54
2022/09/22 02:09:34;;;;;;;6.13;3.08;;;;;;;;;;6267663;22;20051;-55
2022/09/22 02:12:08;;;;;;;7.45;2.75;;;;;;;;;;6269771;22;20028;-57
2022/09/22 02:14:35;;;;;;;4.60;2.20;;;;;;;;;;6269187;22;20135;-55
2022/09/22 02:17:10;;;;;;;6.18;2.25;;;;;;;;;;6268392;22;20514;-56
2022/09/22 02:19:38;;;;;;;6.20;2.30;;;;;;;;;;6243630;22;20069;-51
2022/09/22 02:22:16;;;;;;;5.00;2.40;;;;;;;;;;6271300;22;20024;-45
2022/09/22 02:24:53;;;;;;;6.00;2.67;;;;;;;;;;6271286;22;20050;-46
2022/09/22 02:27:25;;;;;;;6.00;2.60;;;;;;;;;;6270426;22;20019;-47
2022/09/22 02:30:01;;;;;;;4.85;2.50;;;;;;;;;;6270285;22;20090;-48
2022/09/22 02:32:29;;;;;;;6.13;2.50;;;;;;;;;;6270456;22;20483;-46
2022/09/22 02:34:56;;;;;;;5.75;2.67;;;;;;;;;;6270085;22;20364;-46
2022/09/22 02:37:33;;;;;;;10.23;2.60;;;;;;;;;;6270076;22;20030;-63
2022/09/22 02:40:05;;;;;;;5.00;2.72;;;;;;;;;;6270804;22;20030;-45
2022/09/22 02:42:42;;;;;;;6.75;3.00;;;;;;;;;;6269136;22;20031;-63
2022/09/22 02:45:09;;;;;;;4.80;2.50;;;;;;;;;;6269741;22;20050;-63
2022/09/22 02:48:01;;;;;;;6.35;2.28;;;;;;;;;;6270044;22;20031;-63
2022/09/22 02:50:29;;;;;;;5.30;2.53;;;;;;;;;;6270554;22;20027;-64
2022/09/22 02:53:11;;;;;;;6.97;2.47;;;;;;;;;;6272196;22;20026;-64
2022/09/22 02:55:38;;;;;;;2.75;1.85;;;;;;;;;;6271568;22;20501;-54
2022/09/22 02:58:20;;;;;;;7.13;3.20;;;;;;;;;;6270574;22;20102;-60
2022/09/22 03:00:54;;;;;;;4.95;2.20;;;;;;;;;;6271845;22;20023;-45
2022/09/22 03:03:27;;;;;;;13.00;3.40;;;;;;;;;;6271693;22;20024;-49
2022/09/22 03:05:54;;;;;;;7.65;2.42;;;;;;;;;;6244813;22;20015;-47
2022/09/22 03:08:22;;;;;;;7.03;2.70;;;;;;;;;;6269535;22;20491;-48
2022/09/22 03:10:55;;;;;;;6.45;2.10;;;;;;;;;;6272067;22;20016;-45
2022/09/22 03:13:29;;;;;;;6.65;2.50;;;;;;;;;;6271545;22;20584;-45
2022/09/22 03:15:56;;;;;;;6.47;2.70;;;;;;;;;;6270623;22;20101;-72
2022/09/22 03:18:24;;;;;;;7.10;3.95;;;;;;;;;;6271002;22;20030;-47
2022/09/22 03:20:57;;;;;;;13.98;3.50;;;;;;;;;;6269998;22;20016;-60
2022/09/22 03:23:24;;;;;;;9.93;3.80;;;;;;;;;;6270150;22;20023;-60
2022/09/22 03:25:58;;;;;;;6.75;3.17;;;;;;;;;;6271245;22;20459;-60
2022/09/22 03:28:26;;;;;;;8.13;3.75;;;;;;;;;;6269679;22;20112;-60
2022/09/22 03:30:53;;;;;;;8.93;3.53;;;;;;;;;;6270424;22;20198;-60
2022/09/22 03:33:26;;;;;;;13.95;4.90;;;;;;;;;;6270143;22;20469;-60
2022/09/22 03:35:54;;;;;;;11.07;4.65;;;;;;;;;;6269832;22;20028;-61
2022/09/22 03:38:27;;;;;;;12.30;4.57;;;;;;;;;;6269722;22;20023;-63
2022/09/22 03:40:57;;;;;;;7.00;4.22;;;;;;;;;;6269474;22;20457;-64
2022/09/22 03:43:31;;;;;;;12.75;5.78;;;;;;;;;;6268811;22;20028;-64
2022/09/22 03:45:59;;;;;;;9.38;5.20;;;;;;;;;;6269265;22;20027;-63
2022/09/22 03:48:33;;;;;;;7.68;4.10;;;;;;;;;;6269743;22;20016;-63
2022/09/22 03:51:00;;;;;;;7.75;3.53;;;;;;;;;;6271277;22;20020;-64
2022/09/22 03:53:35;;;;;;;7.88;4.13;;;;;;;;;;6269699;22;20464;-45
2022/09/22 03:56:06;;;;;;;9.73;3.63;;;;;;;;;;6270178;22;20023;-56
2022/09/22 03:58:48;;;;;;;8.32;3.30;;;;;;;;;;6270216;22;20488;-47
2022/09/22 04:01:15;;;;;;;11.25;3.53;;;;;;;;;;6270613;22;20026;-45
2022/09/22 04:03:49;;;;;;;10.80;4.50;;;;;;;;;;6270787;22;20023;-46
2022/09/22 04:06:17;;;;;;;8.93;4.03;;;;;;;;;;6271040;22;20098;-46
2022/09/22 04:08:44;;;;;;;10.88;5.20;;;;;;;;;;6271393;22;20361;-45
2022/09/22 04:11:18;;;;;;;10.40;4.60;;;;;;;;;;6271477;22;20027;-45
2022/09/22 04:13:45;;;;;;;4.88;2.58;;;;;;;;;;6268399;22;20073;-60
2022/09/22 04:16:19;;;;;;;8.13;4.72;;;;;;;;;;6270891;22;20027;-63
2022/09/22 04:18:46;;;;;;;7.68;3.45;;;;;;;;;;6268649;22;20027;-63
2022/09/22 04:21:14;;;;;;;13.30;5.10;;;;;;;;;;6270059;22;20030;-63
2022/09/22 04:23:47;;;;;;;15.73;6.90;;;;;;;;;;6269244;22;20689;-64
2022/09/22 04:26:14;;;;;;;14.07;5.65;;;;;;;;;;6268780;22;20540;-64
2022/09/22 04:28:48;;;;;;;13.45;6.80;;;;;;;;;;6269712;22;20030;-64
2022/09/22 04:31:15;;;;;;;11.60;4.65;;;;;;;;;;6269300;22;20019;-52
2022/09/22 04:33:43;;;;;;;12.63;4.13;;;;;;;;;;6270484;22;20028;-54
2022/09/22 04:36:17;;;;;;;11.43;5.53;;;;;;;;;;6244057;22;20019;-45
2022/09/22 04:38:44;;;;;;;13.35;5.38;;;;;;;;;;6269829;22;20022;-48
2022/09/22 04:41:12;;;;;;;9.68;3.72;;;;;;;;;;6269503;22;20030;-47
2022/09/22 04:43:45;;;;;;;10.25;4.30;;;;;;;;;;6243449;22;20020;-49
2022/09/22 04:46:12;;;;;;;9.35;4.63;;;;;;;;;;6269803;22;20029;-49
2022/09/22 04:48:40;;;;;;;11.23;4.60;;;;;;;;;;6266774;22;20529;-46
2022/09/22 04:51:13;;;;;;;10.65;5.68;;;;;;;;;;6263767;22;20030;-53
2022/09/22 04:53:47;;;;;;;19.92;7.70;;;;;;;;;;6269360;22;20511;-46
2022/09/22 04:56:14;;;;;;;18.27;6.93;;;;;;;;;;6269507;22;20126;-46
2022/09/22 04:58:42;;;;;;;19.98;6.13;;;;;;;;;;6269606;22;20360;-51
2022/09/22 05:01:26;;;;;;;15.77;7.30;;;;;;;;;;6270574;22;20047;-48
2022/09/22 05:03:53;;;;;;;10.02;4.50;;;;;;;;;;6270004;22;20023;-47
2022/09/22 05:06:27;;;;;;;11.20;5.53;;;;;;;;;;6269412;22;20556;-46
2022/09/22 05:08:55;;;;;;;14.50;5.68;;;;;;;;;;6269604;22;20098;-46
2022/09/22 05:11:23;;;;;;;12.38;4.93;;;;;;;;;;6271146;22;20026;-48
2022/09/22 05:13:57;;;;;;;18.95;7.35;;;;;;;;;;6271394;22;20020;-56
2022/09/22 05:16:25;;;;;;;15.07;6.85;;;;;;;;;;6270348;22;20345;-50
2022/09/22 05:18:59;;;;;;;18.70;7.63;;;;;;;;;;6270541;22;20364;-54
2022/09/22 05:21:26;;;;;;;17.10;8.60;;;;;;;;;;6270046;22;20026;-54
2022/09/22 05:23:54;;;;;;;26.33;9.02;;;;;;;;;;6270743;22;20019;-55
2022/09/22 05:26:29;;;;;;;23.05;9.30;;;;;;;;;;6271692;22;20341;-52
2022/09/22 05:28:57;;;;;;;17.60;6.70;;;;;;;;;;6270692;22;20099;-60
2022/09/22 05:31:31;;;;;;;9.15;4.50;;;;;;;;;;6269536;22;20390;-45
2022/09/22 05:33:58;;;;;;;13.50;5.55;;;;;;;;;;6270624;22;20046;-47
2022/09/22 05:36:25;;;;;;;15.23;6.18;;;;;;;;;;6267898;22;20095;-48
2022/09/22 05:38:59;;;;;;;14.38;5.57;;;;;;;;;;6270391;22;20023;-47
2022/09/22 05:41:26;;;;;;;7.85;5.07;;;;;;;;;;6269865;22;20099;-47
2022/09/22 05:44:00;;;;;;;11.43;5.63;;;;;;;;;;6269987;22;20024;-45
2022/09/22 05:46:28;;;;;;;12.57;5.22;;;;;;;;;;6270777;22;20352;-46
2022/09/22 05:48:55;;;;;;;13.05;5.82;;;;;;;;;;6271530;22;20028;-64
2022/09/22 05:51:28;;;;;;;12.45;5.15;;;;;;;;;;6270875;22;20333;-60
2022/09/22 05:53:56;;;;;;;15.80;6.80;;;;;;;;;;6272106;22;20496;-61
2022/09/22 05:56:23;;;;;;;10.90;5.57;;;;;;;;;;6271835;22;20028;-60
2022/09/22 05:59:03;;;;;;;9.57;5.18;;;;;;;;;;6269997;22;20465;-60
2022/09/22 06:01:38;;;;;;;18.90;7.25;;;;;;;;;;6272169;22;20077;-60
2022/09/22 06:04:05;;;;;;;15.52;6.32;;;;;;;;;;6272195;22;20095;-60
2022/09/22 06:06:32;;;;;;;15.90;6.95;;;;;;;;;;6244141;22;20699;-64
2022/09/22 06:09:06;;;;;;;16.05;7.50;;;;;;;;;;6273404;22;20107;-56
2022/09/22 06:11:34;;;;;;;15.75;6.80;;;;;;;;;;6273390;22;20090;-60
2022/09/22 06:14:01;;;;;;;13.20;7.47;;;;;;;;;;6271074;22;20252;-60
2022/09/22 06:16:34;;;;;;;15.35;6.50;;;;;;;;;;6272697;22;20015;-60
2022/09/22 06:19:02;;;;;;;10.43;6.47;;;;;;;;;;6273267;22;20117;-60
2022/09/22 06:21:29;;;;;;;6.78;4.07;;;;;;;;;;6271548;22;20026;-59
2022/09/22 06:24:03;;;;;;;10.40;5.28;;;;;;;;;;6273114;22;20020;-60
2022/09/22 06:26:36;;;;;;;11.00;6.03;;;;;;;;;;6272331;22;20023;-61
2022/09/22 06:29:03;;;;;;;19.45;7.40;;;;;;;;;;6271564;22;20020;-58
2022/09/22 06:31:38;;;;;;;7.13;4.38;;;;;;;;;;6272640;22;20027;-58
2022/09/22 06:34:06;;;;;;;7.07;4.30;;;;;;;;;;6273273;22;20428;-57
2022/09/22 06:36:34;;;;;;;9.85;5.65;;;;;;;;;;6271626;22;20030;-57
2022/09/22 06:39:09;;;;;;;17.27;6.78;;;;;;;;;;6272845;22;20023;-58
2022/09/22 06:41:36;;;;;;;9.75;6.50;;;;;;;;;;6271946;22;20043;-55
2022/09/22 06:44:11;;;;;;;17.92;6.18;;;;;;;;;;6271002;22;20069;-61
2022/09/22 06:46:39;;;;;;;21.65;5.90;;;;;;;;;;6271743;22;20020;-50
2022/09/22 06:49:06;;;;;;;10.93;5.72;;;;;;;;;;6271936;22;20022;-70
2022/09/22 06:51:39;;;;;;;14.43;5.70;;;;;;;;;;6265014;22;20034;-70
2022/09/22 06:54:08;;;;;;;11.40;5.90;;;;;;;;;;6271347;22;20381;-70
2022/09/22 06:56:42;;;;;;;16.77;5.75;;;;;;;;;;6269000;22;20103;-69
2022/09/22 06:59:16;;;;;;;14.90;6.35;;;;;;;;;;6266147;22;20027;-70
2022/09/22 07:01:56;;;;;;;14.15;6.18;;;;;;;;;;6268940;22;20380;-70
2022/09/22 07:04:23;;;;;;;15.50;5.68;;;;;;;;;;6268694;22;20024;-60
2022/09/22 07:06:57;;;;;;;15.77;5.13;;;;;;;;;;6242711;22;20515;-46
2022/09/22 07:09:24;;;;;;;12.18;4.55;;;;;;;;;;6266570;22;20365;-57
2022/09/22 07:11:59;;;;;;;11.63;4.60;;;;;;;;;;6268732;22;20103;-56
2022/09/22 07:14:27;;;;;;;;;;;;;;;;;;6266930;22;20433;-57
2022/09/22 07:17:01;;;;;;;19.52;5.55;;;;;;;;;;6268273;22;20526;-56
2022/09/22 07:19:28;;;;;;;15.23;5.60;;;;;;;;;;6268410;22;20027;-56
2022/09/22 07:22:02;;;;;;;13.32;4.40;;;;;;;;;;6268447;22;20023;-53
2022/09/22 07:24:29;;;;;;;10.85;5.03;;;;;;;;;;6268506;22;20356;-65
2022/09/22 07:27:03;;;;;;;13.10;4.78;;;;;;;;;;6269014;22;20023;-65
2022/09/22 07:29:37;;;;;;;14.60;4.60;;;;;;;;;;6268360;22;20029;-65
2022/09/22 07:32:04;;;;;;;9.25;3.67;;;;;;;;;;6268438;22;20126;-65
2022/09/22 07:34:39;;;;;;;9.10;3.22;;;;;;;;;;6242246;22;20026;-66
2022/09/22 07:37:06;;;;;;;6.97;3.40;;;;;;;;;;6268243;22;20019;-66
2022/09/22 07:39:48;;;;;;;10.30;3.40;;;;;;;;;;6243063;22;20027;-66
2022/09/22 07:42:29;;;;;;;17.08;3.17;;;;;;;;;;6269006;22;20019;-55
2022/09/22 07:45:12;;;;;;;16.88;4.28;;;;;;;;;;6267114;22;20023;-59
2022/09/22 07:50:31;;;;;;;9.15;3.15;;;;;;;;;;6267407;22;20032;-53
2022/09/22 07:53:05;;;;;;;12.80;3.22;;;;;;;;;;6269539;22;20025;-49
2022/09/22 07:55:35;;;;;;;7.35;2.47;;;;;;;;;;6267935;22;20016;-47
2022/09/22 07:58:02;;;;;;;10.63;2.70;;;;;;;;;;6268154;22;20420;-47
2022/09/22 08:00:50;;;;;;;10.05;2.45;;;;;;;;;;6268653;22;20055;-65
2022/09/22 08:03:17;;;;;;;8.85;2.83;;;;;;;;;;6269157;22;20028;-51
2022/09/22 08:05:52;;;;;;;14.18;2.80;;;;;;;;;;6269163;22;20023;-56
2022/09/22 08:08:19;;;;;;;7.60;2.25;;;;;;;;;;6268514;22;20030;-57
2022/09/22 08:11:00;;;;;;;12.57;2.20;;;;;;;;;;6268472;22;20046;-58
2022/09/22 08:13:27;;;;;;;8.05;2.03;;;;;;;;;;6263502;22;20293;-58
2022/09/22 08:16:03;;;;;;;6.00;2.08;;;;;;;;;;6269755;22;20024;-59
2022/09/22 08:18:31;;;;;;;9.68;2.38;;;;;;;;;;6267546;22;20086;-58
2022/09/22 08:21:00;;;;;;;;;;;;;;;;;;6268068;22;20744;-51
2022/09/22 08:23:36;;;;;;;11.48;2.10;;;;;;;;;;6269030;22;19915;-48
2022/09/22 08:26:04;;;;;;;7.93;1.70;;;;;;;;;;5167676;22;10000608;-47
2022/09/22 08:28:38;;;;;;;7.65;2.30;;;;;;;;;;6237626;23;20553;-50
2022/09/22 08:31:10;;;;;;;11.30;2.15;;;;;;;;;;6238594;23;20042;-48
2022/09/22 08:33:39;;;;;;;7.95;2.00;;;;;;;;;;6209872;23;20031;-48
2022/09/22 08:36:13;;;;;;;10.18;2.13;;;;;;;;;;6240526;23;20387;-48
2022/09/22 08:38:48;;;;;;;5.88;1.90;;;;;;;;;;6240550;23;20327;-56
2022/09/22 08:41:21;;;;;;;6.07;1.85;;;;;;;;;;6238780;23;20091;-49
2022/09/22 08:44:00;;;;;;;7.00;1.70;;;;;;;;;;6241070;23;20024;-72
2022/09/22 08:46:31;;;;;;;6.70;1.58;;;;;;;;;;6238903;23;20519;-72
2022/09/22 08:52:14;;;;;;;9.07;1.90;;;;;;;;;;6240043;23;20095;-72
2022/09/22 08:54:48;;;;;;;6.80;1.95;;;;;;;;;;6239411;23;20038;-72
2022/09/22 08:57:16;;;;;;;;;;;;;;;;;;6240200;23;20016;-72
2022/09/22 08:59:47;;;;;;;3.35;1.75;;;;;;;;;;6237824;23;19930;-57
2022/09/22 09:02:40;;;;;;;9.32;1.73;;;;;;;;;;6238165;23;20028;-67
2022/09/22 09:05:22;;;;;;;12.57;2.13;;;;;;;;;;6238791;23;20797;-67
2022/09/22 09:08:02;;;;;;;7.38;2.20;;;;;;;;;;6239213;23;20327;-67
2022/09/22 09:10:51;;;;;;;9.13;2.13;;;;;;;;;;6238507;23;20030;-67
2022/09/22 09:13:28;;;;;;;9.55;1.65;;;;;;;;;;6240084;23;20059;-67
2022/09/22 09:16:14;;;;;;;9.00;2.00;;;;;;;;;;6212872;23;20030;-67
2022/09/22 09:19:08;;;;;;;5.90;2.42;;;;;;;;;;6239434;23;20115;-57
2022/09/22 09:21:36;;;;;;;8.93;2.70;;;;;;;;;;6178231;23;20016;-58
2022/09/22 09:24:14;;;;;;;7.22;2.00;;;;;;;;;;6235103;23;20024;-59
2022/09/22 09:27:07;;;;;;;8.82;2.20;;;;;;;;;;6238486;23;20533;-58
2022/09/22 09:29:56;;;;;;;6.43;2.05;;;;;;;;;;6239662;23;20046;-60
2022/09/22 09:32:31;;;;;;;7.40;2.00;;;;;;;;;;6238800;23;20020;-59
2022/09/22 09:35:06;;;;;;;9.18;2.08;;;;;;;;;;6239422;23;20020;-59
2022/09/22 09:37:39;;;;;;;5.15;1.88;;;;;;;;;;6238755;23;20024;-45
2022/09/22 09:40:16;;;;;;;8.07;1.88;;;;;;;;;;6238651;23;20380;-56
2022/09/22 09:42:46;;;;;;;4.97;1.85;;;;;;;;;;6238807;23;20020;-58
2022/09/22 09:45:14;;;;;;;9.68;2.47;;;;;;;;;;6238503;23;20032;-59
2022/09/22 09:48:01;;;;;;;8.63;2.28;;;;;;;;;;6239645;23;20095;-58
2022/09/22 09:50:30;;;;;;;6.78;2.28;;;;;;;;;;6238183;23;20035;-58
2022/09/22 09:53:05;;;;;;;3.95;1.80;;;;;;;;;;6239146;23;20112;-55
2022/09/22 09:55:34;;;;;;;9.50;2.30;;;;;;;;;;6238210;23;20389;-62
2022/09/22 10:00:30;;;;;;;7.25;1.88;;;;;;;;;;6238894;23;20445;-55
2022/09/22 10:01:08;;;;;;;10.82;2.10;;;;;;;;;;6237666;23;20028;-54
2022/09/22 10:03:53;;;;;;;7.03;2.20;;;;;;;;;;6238671;23;20408;-51
2022/09/22 10:06:25;;;;;;;7.25;1.60;;;;;;;;;;6238607;23;20043;-52
2022/09/22 10:08:58;;;;;;;4.20;1.73;;;;;;;;;;6239576;23;20023;-55
2022/09/22 10:11:32;;;;;;;5.07;1.92;;;;;;;;;;6239422;23;20024;-54
2022/09/22 10:14:16;;;;;;;5.53;1.85;;;;;;;;;;6238133;23;20024;-54
2022/09/22 10:16:51;;;;;;;6.57;2.10;;;;;;;;;;6237990;23;20135;-47
2022/09/22 10:19:27;;;;;;;6.45;2.08;;;;;;;;;;6238562;23;20043;-53
2022/09/22 10:22:13;;;;;;;5.70;1.70;;;;;;;;;;6238198;23;20454;-55
2022/09/22 10:24:58;;;;;;;8.65;1.70;;;;;;;;;;6233216;23;20058;-55
2022/09/22 10:27:26;;;;;;;8.80;1.90;;;;;;;;;;6236376;23;20031;-53
2022/09/22 10:30:10;;;;;;;10.43;2.28;;;;;;;;;;6238611;23;20030;-53
2022/09/22 10:32:37;;;;;;;7.55;2.10;;;;;;;;;;6237669;23;20020;-50
2022/09/22 10:35:31;;;;;;;8.27;2.00;;;;;;;;;;6241289;23;20016;-46
2022/09/22 10:38:12;;;;;;;7.07;1.80;;;;;;;;;;6239475;23;20335;-56
2022/09/22 10:40:51;;;;;;;4.20;1.80;;;;;;;;;;6239095;23;20021;-55
2022/09/22 10:43:24;;;;;;;4.03;1.70;;;;;;;;;;6240510;23;20027;-57
2022/09/22 10:46:04;;;;;;;9.93;1.65;;;;;;;;;;6240036;23;20016;-55
2022/09/22 10:48:40;;;;;;;6.90;1.90;;;;;;;;;;6240309;23;20107;-56
2022/09/22 10:51:21;;;;;;;5.25;1.90;;;;;;;;;;6240664;23;20030;-54
2022/09/22 10:53:48;;;;;;;5.63;1.85;;;;;;;;;;6238867;23;20488;-52
2022/09/22 10:56:22;;;;;;;7.20;1.60;;;;;;;;;;6240946;23;20031;-53
2022/09/22 10:59:13;;;;;;;6.03;1.63;;;;;;;;;;6237452;23;20021;-52
2022/09/22 11:01:56;;;;;;;5.68;1.60;;;;;;;;;;6208881;23;20031;-53
2022/09/22 11:04:42;;;;;;;6.35;1.80;;;;;;;;;;6209862;23;20021;-55
2022/09/22 11:13:25;;;;;;;4.03;1.60;;;;;;;;;;6209912;23;20424;-61
2022/09/22 11:15:53;;;;;;;6.78;1.63;;;;;;;;;;6208985;23;20025;-61
2022/09/22 11:18:27;;;;;;;4.57;1.60;;;;;;;;;;6209497;23;20051;-61
2022/09/22 11:21:05;;;;;;;3.85;1.60;;;;;;;;;;6209406;23;20029;-61
2022/09/22 11:23:46;;;;;;;3.55;1.58;;;;;;;;;;6208075;23;20582;-61
2022/09/22 11:26:17;;;;;;;2.97;1.42;;;;;;;;;;6209511;23;20039;-61
2022/09/22 11:29:06;;;;;;;4.22;1.63;;;;;;;;;;6208685;23;20379;-61
2022/09/22 11:31:57;;;;;;;3.75;1.45;;;;;;;;;;6208269;23;20258;-54
2022/09/22 11:34:37;;;;;;;3.58;1.30;;;;;;;;;;6209967;23;20024;-74
2022/09/22 11:37:31;;;;;;;3.85;1.50;;;;;;;;;;6209944;23;20129;-74
2022/09/22 11:39:58;;;;;;;2.35;1.50;;;;;;;;;;6209645;23;20027;-74
2022/09/22 11:42:39;;;;;;;4.65;1.60;;;;;;;;;;6209978;23;20021;-74
2022/09/22 11:45:25;;;;;;;6.35;1.42;;;;;;;;;;6208964;23;20021;-74
2022/09/22 11:48:05;;;;;;;2.95;1.27;;;;;;;;;;6210477;23;20099;-74
2022/09/22 11:50:44;;;;;;;5.03;1.60;;;;;;;;;;6208938;23;20021;-55
2022/09/22 11:53:27;;;;;;;5.45;1.45;;;;;;;;;;6206818;23;20414;-49
2022/09/22 11:56:04;;;;;;;5.78;1.52;;;;;;;;;;6206187;23;20017;-46
2022/09/22 11:58:40;;;;;;;2.35;1.20;;;;;;;;;;6206962;23;20028;-47
2022/09/22 12:01:18;;;;;;;5.75;1.50;;;;;;;;;;6232429;23;20020;-47
2022/09/22 12:03:55;;;;;;;2.58;1.40;;;;;;;;;;6236059;23;20428;-50
2022/09/22 12:06:25;;;;;;;5.78;1.73;;;;;;;;;;6234309;23;20493;-50
2022/09/22 12:09:10;;;;;;;4.65;1.63;;;;;;;;;;6236268;23;20028;-66
2022/09/22 12:11:38;;;;;;;4.57;1.70;;;;;;;;;;6235791;23;20038;-50
2022/09/22 12:14:13;;;;;;;8.85;1.70;;;;;;;;;;6236609;23;20492;-75
2022/09/22 12:16:49;;;;;;;2.53;1.48;;;;;;;;;;6235834;23;20026;-75
2022/09/22 12:19:33;;;;;;;4.28;1.70;;;;;;;;;;6236538;23;20039;-75
2022/09/22 12:22:24;;;;;;;5.00;1.40;;;;;;;;;;6235984;23;20481;-76
2022/09/22 12:24:57;;;;;;;4.07;1.33;;;;;;;;;;6236533;23;20034;-75
2022/09/22 12:27:26;;;;;;;3.33;1.25;;;;;;;;;;6236856;23;20116;-54
2022/09/22 12:29:54;;;;;;;4.25;1.50;;;;;;;;;;6235587;23;20107;-55
2022/09/22 12:32:35;;;;;;;3.60;0.98;;;;;;;;;;6236311;23;20700;-48
2022/09/22 12:35:28;;;;;;;4.03;1.42;;;;;;;;;;6236982;23;20489;-46
2022/09/22 12:38:00;;;;;;;2.80;1.23;;;;;;;;;;6235591;23;20028;-49
2022/09/22 12:40:36;;;;;;;3.60;1.30;;;;;;;;;;6235588;23;20440;-49
2022/09/22 12:43:05;;;;;;;3.92;1.60;;;;;;;;;;6210864;23;20067;-49
2022/09/22 12:45:41;;;;;;;5.13;1.52;;;;;;;;;;6234528;23;20038;-48
2022/09/22 12:48:16;;;;;;;3.92;1.35;;;;;;;;;;6237039;23;20290;-75
2022/09/22 12:50:51;;;;;;;5.60;1.67;;;;;;;;;;6235554;23;20499;-76
2022/09/22 12:53:21;;;;;;;3.45;1.27;;;;;;;;;;6209381;23;20119;-77
2022/09/22 12:55:55;;;;;;;3.38;1.60;;;;;;;;;;6236679;23;20110;-76
2022/09/22 12:58:23;;;;;;;3.67;1.42;;;;;;;;;;6238617;23;20536;-75
2022/09/22 13:01:23;;;;;;;3.42;1.17;;;;;;;;;;6237377;23;20020;-77
2022/09/22 13:03:51;;;;;;;1.90;1.25;;;;;;;;;;6239912;23;20035;-76
2022/09/22 13:06:24;;;;;;;3.17;1.42;;;;;;;;;;6238047;23;20347;-46
2022/09/22 13:08:52;;;;;;;2.78;1.15;;;;;;;;;;6239544;23;20053;-56
2022/09/22 13:11:19;;;;;;;2.13;0.90;;;;;;;;;;6239190;23;20086;-61
2022/09/22 13:13:53;;;;;;;2.92;1.10;;;;;;;;;;6239025;23;20021;-61
2022/09/22 13:16:32;;;;;;;4.07;1.40;;;;;;;;;;6239360;23;20110;-60
2022/09/22 13:19:05;;;;;;;;;;;;;;;;;;6240736;23;20066;-60
2022/09/22 13:21:40;;;;;;;4.32;1.20;;;;;;;;;;6237563;23;19929;-61
2022/09/22 13:24:16;;;;;;;5.18;1.27;;;;;;;;;;6239011;23;20034;-53
2022/09/22 13:27:02;;;;;;;2.10;1.42;;;;;;;;;;6240186;23;20404;-47
2022/09/22 13:29:35;;;;;;;2.83;1.02;;;;;;;;;;6237294;23;20020;-54
2022/09/22 13:32:16;;;;;;;3.40;1.20;;;;;;;;;;6238999;23;20116;-56
2022/09/22 13:34:44;;;;;;;2.08;1.00;;;;;;;;;;6237824;23;20465;-55
2022/09/22 13:37:20;;;;;;;3.22;1.40;;;;;;;;;;6238660;23;20107;-52
2022/09/22 13:39:54;;;;;;;4.80;1.25;;;;;;;;;;6239923;23;20436;-56
2022/09/22 13:42:21;;;;;;;;;;;;;;;;;;6240183;23;20020;-53
2022/09/22 13:45:05;;;;;;;2.10;1.10;;;;;;;;;;6212606;23;19990;-47
2022/09/22 13:47:33;;;;;;;4.22;1.40;;;;;;;;;;6237529;23;20024;-54
2022/09/22 13:50:11;;;;;;;2.85;1.40;;;;;;;;;;6239832;23;20027;-57
2022/09/22 13:52:38;;;;;;;2.50;1.17;;;;;;;;;;6237243;23;20027;-55
2022/09/22 13:55:06;;;;;;;;;;;;;;;;;;6238509;23;20107;-56
2022/09/22 13:57:41;;;;;;;4.97;1.38;;;;;;;;;;6238990;23;20392;-54
2022/09/22 14:00:23;;;;;;;3.45;1.48;;;;;;;;;;6236162;23;20484;-57
2022/09/22 14:02:57;;;;;;;2.53;1.30;;;;;;;;;;6239560;23;20042;-56
2022/09/22 14:05:32;;;;;;;3.92;0.85;;;;;;;;;;6237316;23;20024;-52
2022/09/22 14:08:02;;;;;;;4.07;1.27;;;;;;;;;;6239434;23;20022;-46
2022/09/22 14:10:43;;;;;;;3.58;1.13;;;;;;;;;;6241316;23;20028;-46
2022/09/22 14:13:36;;;;;;;4.10;1.27;;;;;;;;;;6240426;23;20030;-48
2022/09/22 14:16:24;;;;;;;1.80;1.00;;;;;;;;;;6240348;23;20146;-45
2022/09/22 14:18:57;;;;;;;3.10;1.05;;;;;;;;;;6241553;23;20023;-46
2022/09/22 14:21:50;;;;;;;4.38;1.20;;;;;;;;;;6239925;23;20024;-72
2022/09/22 14:24:18;;;;;;;3.33;1.60;;;;;;;;;;6239645;23;20020;-66
2022/09/22 14:26:57;;;;;;;1.67;1.08;;;;;;;;;;6241802;23;20020;-53
2022/09/22 14:29:31;;;;;;;2.05;0.88;;;;;;;;;;6240924;23;20024;-53
2022/09/22 14:32:15;;;;;;;6.38;1.67;;;;;;;;;;6242438;23;20103;-56
2022/09/22 14:34:51;;;;;;;3.03;1.23;;;;;;;;;;6242213;23;20605;-53
2022/09/22 14:37:28;;;;;;;2.92;1.30;;;;;;;;;;6240826;23;20030;-55
2022/09/22 14:39:56;;;;;;;2.80;0.93;;;;;;;;;;6241746;23;20100;-56
2022/09/22 14:42:31;;;;;;;3.13;1.20;;;;;;;;;;6241854;23;20024;-49
2022/09/22 23:16:29;;;;;;;10.13;3.33;;;;;;;;;;6202929;23;20861;-53
2022/09/22 23:19:15;;;;;;;7.10;3.00;;;;;;;;;;6239772;23;20350;-47
